createdAt,value
2022-11-28T00:00:02.586Z,86.17
2022-11-28T00:02:38.998Z,86.14
2022-11-28T00:05:12.431Z,85.66
2022-11-28T00:07:47.547Z,85.92
2022-11-28T00:10:17.854Z,85.87
2022-11-28T00:12:48.659Z,86.38
2022-11-28T00:15:20.513Z,86.28
2022-11-28T00:17:49.909Z,85.60
2022-11-28T00:20:21.978Z,86.28
2022-11-28T00:22:52.538Z,86.01
2022-11-28T00:25:22.222Z,85.82
2022-11-28T00:27:55.908Z,85.96
2022-11-28T00:30:30.732Z,86.00
2022-11-28T00:33:00.079Z,86.41
2022-11-28T00:35:28.811Z,86.18
2022-11-28T00:38:03.389Z,86.09
2022-11-28T00:40:34.168Z,85.63
2022-11-28T00:43:12.015Z,86.18
2022-11-28T00:45:41.096Z,87.54
2022-11-28T00:48:12.710Z,86.33
2022-11-28T00:50:42.261Z,85.91
2022-11-28T00:53:11.845Z,85.55
2022-11-28T00:55:44.963Z,85.00
2022-11-28T00:58:17.806Z,85.17
2022-11-28T01:00:47.441Z,86.03
2022-11-28T01:03:16.364Z,86.40
2022-11-28T01:05:46.351Z,87.35
2022-11-28T01:08:23.557Z,87.08
2022-11-28T01:10:52.982Z,86.06
2022-11-28T01:13:29.460Z,86.34
2022-11-28T01:16:03.343Z,86.92
2022-11-28T01:18:33.167Z,85.26
2022-11-28T01:21:02.859Z,86.57
2022-11-28T01:23:33.893Z,86.70
2022-11-28T01:26:08.939Z,85.44
2022-11-28T01:28:39.784Z,85.40
2022-11-28T01:31:11.190Z,85.96
2022-11-28T01:33:40.231Z,85.63
2022-11-28T01:36:11.581Z,85.62
2022-11-28T01:38:47.580Z,85.34
2022-11-28T01:41:22.312Z,85.78
2022-11-28T01:44:37.225Z,84.55
2022-11-28T01:47:08.730Z,84.43
2022-11-28T01:49:39.413Z,84.90
2022-11-28T01:52:14.254Z,84.48
2022-11-28T01:54:48.159Z,84.55
2022-11-28T01:57:21.205Z,85.51
2022-11-28T01:59:58.283Z,85.22
2022-11-28T02:02:36.799Z,85.48
2022-11-28T02:05:06.952Z,85.14
2022-11-28T02:07:36.720Z,84.99
2022-11-28T02:10:09.455Z,84.75
2022-11-28T02:12:59.124Z,85.73
2022-11-28T02:15:46.499Z,85.42
2022-11-28T02:18:32.440Z,86.72
2022-11-28T02:21:27.541Z,86.27
2022-11-28T02:24:35.891Z,86.07
2022-11-28T02:27:25.098Z,84.96
2022-11-28T02:30:17.694Z,85.17
2022-11-28T02:33:18.206Z,84.75
2022-11-28T02:39:01.695Z,83.66
2022-11-28T02:41:37.972Z,84.63
2022-11-28T02:44:29.525Z,83.92
2022-11-28T02:47:09.751Z,84.02
2022-11-28T02:49:48.242Z,85.23
2022-11-28T02:52:27.004Z,84.28
2022-11-28T02:55:13.056Z,84.07
2022-11-28T02:57:44.375Z,84.23
2022-11-28T03:00:29.070Z,84.18
2022-11-28T03:03:28.269Z,83.33
2022-11-28T03:06:12.084Z,82.21
2022-11-28T03:09:02.168Z,83.50
2022-11-28T03:11:47.877Z,82.22
2022-11-28T03:14:28.251Z,83.01
2022-11-28T03:20:17.026Z,82.61
2022-11-28T03:23:18.183Z,83.05
2022-11-28T03:26:05.580Z,84.20
2022-11-28T03:28:43.735Z,83.09
2022-11-28T03:31:23.390Z,84.60
2022-11-28T03:34:00.323Z,84.64
2022-11-28T03:36:36.010Z,84.61
2022-11-28T03:39:22.050Z,84.75
2022-11-28T03:41:56.380Z,85.12
2022-11-28T03:44:44.373Z,86.28
2022-11-28T03:47:16.459Z,86.53
2022-11-28T03:50:15.089Z,87.05
2022-11-28T03:55:47.760Z,86.45
2022-11-28T03:58:29.875Z,86.33
2022-11-28T04:01:05.478Z,86.28
2022-11-28T04:03:46.373Z,85.88
2022-11-28T04:06:30.653Z,85.52
2022-11-28T04:09:14.155Z,84.85
2022-11-28T04:12:03.272Z,84.47
2022-11-28T05:00:30.221Z,84.37
2022-11-28T05:03:00.637Z,83.45
2022-11-28T05:05:33.013Z,82.76
2022-11-28T05:08:02.444Z,84.69
2022-11-28T05:10:32.083Z,84.49
2022-11-28T05:13:05.083Z,84.71
2022-11-28T05:15:37.195Z,85.77
2022-11-28T05:18:06.987Z,85.24
2022-11-28T05:20:39.696Z,83.47
2022-11-28T05:23:08.593Z,83.40
2022-11-28T05:25:40.220Z,84.51
2022-11-28T05:28:11.361Z,83.97
2022-11-28T05:30:41.981Z,84.59
2022-11-28T05:33:10.997Z,83.73
2022-11-28T05:35:42.583Z,83.95
2022-11-28T05:38:13.674Z,83.52
2022-11-28T05:40:45.538Z,83.61
2022-11-28T05:43:14.934Z,83.61
2022-11-28T05:45:47.263Z,82.95
2022-11-28T05:48:18.968Z,82.63
2022-11-28T05:50:51.012Z,81.58
2022-11-28T05:53:21.328Z,82.08
2022-11-28T05:55:51.594Z,82.18
2022-11-28T05:58:25.652Z,81.93
2022-11-28T06:01:03.795Z,81.39
2022-11-28T06:03:35.375Z,81.22
2022-11-28T06:06:04.760Z,82.66
2022-11-28T06:08:35.144Z,82.72
2022-11-28T06:11:04.025Z,82.83
2022-11-28T06:13:33.605Z,82.98
2022-11-28T06:16:11.430Z,83.15
2022-11-28T06:18:42.580Z,84.37
2022-11-28T06:21:12.872Z,83.20
2022-11-28T06:23:42.171Z,83.60
2022-11-28T06:26:12.835Z,84.44
2022-11-28T06:28:42.144Z,83.15
2022-11-28T06:31:14.993Z,82.56
2022-11-28T06:33:56.235Z,82.09
2022-11-28T06:42:25.652Z,80.90
2022-11-28T06:44:54.705Z,80.28
2022-11-28T06:47:29.594Z,80.67
2022-11-28T06:49:58.767Z,81.92
2022-11-28T06:52:27.100Z,82.45
2022-11-28T07:01:11.052Z,82.14
2022-11-28T07:03:57.576Z,82.98
2022-11-28T07:06:34.302Z,82.63
2022-11-28T07:09:03.935Z,81.62
2022-11-28T07:11:35.371Z,82.83
2022-11-28T07:14:07.007Z,82.93
2022-11-28T07:16:59.933Z,82.51
2022-11-28T07:19:33.674Z,82.31
2022-11-28T07:22:07.433Z,82.48
2022-11-28T07:24:36.882Z,83.12
2022-11-28T07:27:07.205Z,83.31
2022-11-28T07:51:07.976Z,80.47
2022-11-28T07:53:39.931Z,80.80
2022-11-28T07:56:17.433Z,81.08
2022-11-28T08:01:42.791Z,81.77
2022-11-28T08:04:15.230Z,82.63
2022-11-28T08:12:23.067Z,80.44
2022-11-28T08:14:54.174Z,81.22
2022-11-28T08:20:26.155Z,79.96
2022-11-28T08:23:39.658Z,79.58
2022-11-28T08:29:29.476Z,80.41
2022-11-28T08:32:18.124Z,78.51
2022-11-28T08:34:50.295Z,79.63
2022-11-28T08:37:26.115Z,78.75
2022-11-28T08:40:00.651Z,77.51
2022-11-28T08:42:48.331Z,78.74
2022-11-28T08:45:19.106Z,78.91
2022-11-28T08:47:50.866Z,80.08
2022-11-28T08:50:24.392Z,79.17
2022-11-28T08:53:07.221Z,78.95
2022-11-28T11:19:47.509Z,71.34
2022-11-28T11:22:24.036Z,71.25
2022-11-28T11:25:21.616Z,71.57
2022-11-28T11:27:59.007Z,71.00
2022-11-28T11:30:32.729Z,70.74
2022-11-28T11:33:09.887Z,70.68
2022-11-28T11:36:25.192Z,71.00
2022-11-28T11:39:12.551Z,70.71
2022-11-28T11:41:43.353Z,70.32
2022-11-28T11:44:34.477Z,70.69
2022-11-28T11:47:05.364Z,70.69
2022-11-28T11:49:35.560Z,70.37
2022-11-28T11:52:07.185Z,71.36
2022-11-28T11:54:35.461Z,71.92
2022-11-28T11:57:31.363Z,72.37
2022-11-28T11:59:57.956Z,70.62
2022-11-28T12:02:53.717Z,70.20
2022-11-28T12:20:31.722Z,70.67
2022-11-28T12:23:07.551Z,71.87
2022-11-28T12:25:45.509Z,70.88
2022-11-28T12:28:26.875Z,69.18
2022-11-28T12:31:09.571Z,69.63
2022-11-28T12:33:49.189Z,68.34
2022-11-28T12:36:28.540Z,68.54
2022-11-28T12:39:17.913Z,69.32
2022-11-28T12:42:16.330Z,69.84
2022-11-28T12:44:55.426Z,69.58
2022-11-28T12:47:36.688Z,69.94
2022-11-28T12:50:16.094Z,69.90
2022-11-28T12:52:54.185Z,71.83
2022-11-28T12:55:33.498Z,70.56
2022-11-28T12:58:09.942Z,71.55
2022-11-28T13:00:51.448Z,71.21
2022-11-28T13:03:41.160Z,71.27
2022-11-28T13:06:20.589Z,71.96
2022-11-28T13:09:10.541Z,70.77
2022-11-28T13:11:48.739Z,71.73
2022-11-28T13:14:26.256Z,72.77
2022-11-28T13:16:57.699Z,72.33
2022-11-28T13:19:36.012Z,72.47
2022-11-28T13:22:12.841Z,72.73
2022-11-28T13:24:49.596Z,73.26
2022-11-28T13:27:32.773Z,73.50
2022-11-28T13:30:14.669Z,71.98
2022-11-28T13:32:48.149Z,72.72
2022-11-28T13:35:18.677Z,72.78
2022-11-28T13:40:50.585Z,73.75
2022-11-28T13:43:30.638Z,74.05
2022-11-28T13:45:59.216Z,72.85
2022-11-28T13:51:42.099Z,74.03
2022-11-28T13:54:48.966Z,73.67
2022-11-28T13:57:31.201Z,74.57
2022-11-28T14:00:23.212Z,74.07
2022-11-28T14:02:54.812Z,74.04
2022-11-28T14:05:30.740Z,72.78
2022-11-28T14:08:01.132Z,72.79
2022-11-28T14:10:48.667Z,73.81
2022-11-28T14:13:46.033Z,72.28
2022-11-28T14:16:24.755Z,73.15
2022-11-28T14:19:07.378Z,73.12
2022-11-28T14:21:53.478Z,73.59
2022-11-28T14:24:34.021Z,74.10
2022-11-28T14:27:05.416Z,74.49
2022-11-28T14:29:38.654Z,75.46
2022-11-28T14:32:29.185Z,75.46
2022-11-28T14:34:56.028Z,75.36
2022-11-28T14:37:53.162Z,75.14
2022-11-28T14:41:06.816Z,75.29
2022-11-28T14:43:37.273Z,75.58
2022-11-28T14:46:32.999Z,75.37
2022-11-28T14:49:22.577Z,75.84
2022-11-28T14:54:57.483Z,75.68
2022-11-28T14:57:28.871Z,76.39
2022-11-28T14:59:59.918Z,76.79
2022-11-28T15:02:55.873Z,76.36
2022-11-28T15:05:39.893Z,76.95
2022-11-28T15:08:39.482Z,77.43
2022-11-28T15:11:29.829Z,78.18
2022-11-28T15:14:16.958Z,77.05
2022-11-28T15:16:50.487Z,76.99
2022-11-28T15:19:25.911Z,78.72
2022-11-28T15:21:55.627Z,77.62
2022-11-28T15:24:27.486Z,77.13
2022-11-28T15:26:58.103Z,77.91
2022-11-28T15:29:27.964Z,78.31
2022-11-28T15:31:57.962Z,78.49
2022-11-28T15:34:33.273Z,78.98
2022-11-28T15:37:03.736Z,78.57
2022-11-28T15:39:36.182Z,78.84
2022-11-28T15:42:07.054Z,78.45
2022-11-28T15:44:37.873Z,78.38
2022-11-28T15:47:06.833Z,79.50
2022-11-28T15:49:40.745Z,78.87
2022-11-28T15:52:08.980Z,79.85
2022-11-28T15:54:42.828Z,79.70
2022-11-28T15:57:19.870Z,80.19
2022-11-28T15:59:48.110Z,79.92
2022-11-28T16:06:00.385Z,81.00
2022-11-28T16:08:30.575Z,80.98
2022-11-28T16:11:00.060Z,81.22
2022-11-28T16:13:30.767Z,81.15
2022-11-28T16:16:01.471Z,81.16
2022-11-28T16:18:31.426Z,81.38
2022-11-28T16:21:02.471Z,81.10
2022-11-28T16:23:35.456Z,81.32
2022-11-28T16:26:05.223Z,81.95
2022-11-28T16:28:35.068Z,82.16
2022-11-28T16:31:03.395Z,81.07
2022-11-28T16:33:39.340Z,81.83
2022-11-28T16:36:33.451Z,81.94
2022-11-28T16:39:14.464Z,82.51
2022-11-28T16:41:47.597Z,81.78
2022-11-28T16:44:19.217Z,82.53
2022-11-28T16:46:53.067Z,82.07
2022-11-28T16:49:34.809Z,81.79
2022-11-28T16:52:46.810Z,82.13
2022-11-28T16:55:44.556Z,82.52
2022-11-28T16:58:18.884Z,81.98
2022-11-28T17:00:51.705Z,82.74
2022-11-28T17:03:42.132Z,82.72
2022-11-28T17:06:17.848Z,81.93
2022-11-28T17:08:47.420Z,81.97
2022-11-28T17:11:18.155Z,82.18
2022-11-28T17:13:46.122Z,82.02
2022-11-28T17:16:19.748Z,81.09
2022-11-28T17:18:48.205Z,80.32
2022-11-28T17:21:18.170Z,81.01
2022-11-28T17:23:47.738Z,81.08
2022-11-28T17:26:15.728Z,81.77
2022-11-28T17:28:43.905Z,82.65
2022-11-28T17:31:14.349Z,82.56
2022-11-28T17:33:44.887Z,83.44
2022-11-28T17:36:13.820Z,84.32
2022-11-28T17:38:41.985Z,84.07
2022-11-28T17:41:14.979Z,84.39
2022-11-28T17:43:43.303Z,84.56
2022-11-28T17:46:11.701Z,84.90
2022-11-28T17:48:39.811Z,85.31
2022-11-28T17:51:07.846Z,84.91
2022-11-28T17:53:36.059Z,85.59
2022-11-28T17:56:04.159Z,84.80
2022-11-28T17:58:33.672Z,85.73
2022-11-28T18:01:01.787Z,84.77
2022-11-28T18:03:30.415Z,84.92
2022-11-28T18:05:58.557Z,84.36
2022-11-28T18:08:26.783Z,84.65
2022-11-28T18:11:04.387Z,85.04
2022-11-28T18:13:34.319Z,85.58
2022-11-28T18:16:02.918Z,85.37
2022-11-28T18:18:32.157Z,85.42
2022-11-28T18:21:00.515Z,85.25
2022-11-28T18:23:29.171Z,86.06
2022-11-28T18:25:57.216Z,86.50
2022-11-28T18:28:25.493Z,85.17
2022-11-28T18:30:54.873Z,86.41
2022-11-28T18:33:23.281Z,85.99
2022-11-28T18:35:51.552Z,86.34
2022-11-28T18:38:19.726Z,86.66
2022-11-28T18:40:47.943Z,87.04
2022-11-28T18:43:16.106Z,86.22
2022-11-28T18:45:44.429Z,87.39
2022-11-28T18:48:14.552Z,87.06
2022-11-28T18:50:42.954Z,87.19
2022-11-28T18:53:11.082Z,88.16
2022-11-28T18:55:39.423Z,87.64
2022-11-28T18:58:07.612Z,87.93
2022-11-28T19:00:35.732Z,87.79
2022-11-28T19:03:03.988Z,88.15
2022-11-28T19:05:39.009Z,88.67
2022-11-28T19:08:07.349Z,88.11
2022-11-28T19:10:39.012Z,88.10
2022-11-28T19:13:07.339Z,88.85
2022-11-28T19:15:43.291Z,88.78
2022-11-28T19:18:14.498Z,88.09
2022-11-28T19:20:50.766Z,89.35
2022-11-28T19:23:31.218Z,89.66
2022-11-28T19:26:04.321Z,89.91
2022-11-28T19:50:22.611Z,89.72
2022-11-28T19:52:51.201Z,89.43
2022-11-28T19:55:19.924Z,90.04
2022-11-28T19:57:48.021Z,90.68
2022-11-28T20:00:18.251Z,90.95
2022-11-28T20:02:46.215Z,90.64
2022-11-28T20:05:14.125Z,91.12
2022-11-28T20:07:43.509Z,90.32
2022-11-28T20:10:11.598Z,90.89
2022-11-28T20:12:39.602Z,90.39
2022-11-28T20:15:09.810Z,90.84
2022-11-28T20:17:40.723Z,91.49
2022-11-28T20:20:10.378Z,91.48
2022-11-28T20:22:38.368Z,91.08
2022-11-28T20:25:09.362Z,91.55
2022-11-28T20:27:37.372Z,90.59
2022-11-28T20:30:07.252Z,91.79
2022-11-28T20:32:35.128Z,92.61
2022-11-28T20:35:04.977Z,91.86
2022-11-28T20:37:32.882Z,91.57
2022-11-28T20:40:00.725Z,92.66
2022-11-28T20:42:30.095Z,92.51
2022-11-28T20:44:58.095Z,91.82
2022-11-28T20:47:26.108Z,92.53
2022-11-28T20:49:54.054Z,92.11
2022-11-28T20:52:22.251Z,91.98
2022-11-28T20:54:50.125Z,92.09
2022-11-28T20:57:21.808Z,93.21
2022-11-28T20:59:52.621Z,92.53
2022-11-28T21:02:21.851Z,92.42
2022-11-28T21:04:50.054Z,93.10
2022-11-28T21:07:18.731Z,91.64
2022-11-28T21:09:47.124Z,92.54
2022-11-28T21:12:20.667Z,93.15
2022-11-28T21:14:48.755Z,92.88
2022-11-28T21:17:18.179Z,92.37
2022-11-28T21:19:46.581Z,92.74
2022-11-28T21:22:14.835Z,93.06
2022-11-28T21:24:42.759Z,92.74
2022-11-28T21:27:56.064Z,93.27
2022-11-28T21:30:24.158Z,93.18
2022-11-28T21:32:53.660Z,92.88
2022-11-28T21:35:21.814Z,92.92
2022-11-28T21:37:49.848Z,93.35
2022-11-28T21:40:18.071Z,93.18
2022-11-28T21:42:46.285Z,91.68
2022-11-28T21:45:14.240Z,91.51
2022-11-28T21:47:42.299Z,91.42
2022-11-28T21:50:13.160Z,92.62
2022-11-28T21:52:41.321Z,91.74
2022-11-28T21:55:09.656Z,91.91
2022-11-28T21:57:37.955Z,92.60
2022-11-28T22:00:07.178Z,92.59
2022-11-28T22:02:35.304Z,91.58
2022-11-28T22:05:03.443Z,92.59
2022-11-28T22:07:33.519Z,92.43
2022-11-28T22:10:01.638Z,91.88
2022-11-28T22:12:29.702Z,92.76
2022-11-28T22:14:57.741Z,92.24
2022-11-28T22:17:25.751Z,92.48
2022-11-28T22:19:53.774Z,91.92
2022-11-28T22:22:22.300Z,93.67
2022-11-28T22:24:52.417Z,93.89
2022-11-28T22:27:20.687Z,93.79
2022-11-28T22:29:49.179Z,92.59
2022-11-28T22:32:17.874Z,93.04
2022-11-28T22:34:46.344Z,92.43
2022-11-28T22:37:14.623Z,93.39
2022-11-28T22:39:42.717Z,93.02
2022-11-28T22:42:13.169Z,93.30
2022-11-28T22:44:41.782Z,92.58
2022-11-28T22:47:10.010Z,92.63
2022-11-28T22:49:38.221Z,91.60
2022-11-28T22:52:06.560Z,91.69
2022-11-28T22:54:34.949Z,90.72
2022-11-28T22:57:03.422Z,90.66
2022-11-28T22:59:35.285Z,90.54
2022-11-28T23:02:04.124Z,90.46
2022-11-28T23:04:32.862Z,91.33
2022-11-28T23:07:01.173Z,91.06
2022-11-28T23:09:29.688Z,91.39
2022-11-28T23:11:58.815Z,92.60
2022-11-28T23:14:27.030Z,92.05
2022-11-28T23:16:57.365Z,92.07
2022-11-28T23:19:26.556Z,92.24
2022-11-28T23:21:54.735Z,92.49
2022-11-28T23:24:24.310Z,92.82
2022-11-28T23:26:53.497Z,92.70
2022-11-28T23:29:21.648Z,92.76
2022-11-28T23:31:49.962Z,91.80
2022-11-28T23:34:19.627Z,92.38
2022-11-28T23:36:48.505Z,92.89
2022-11-28T23:39:19.268Z,93.29
2022-11-28T23:41:48.699Z,93.45
2022-11-28T23:44:18.126Z,92.75
2022-11-28T23:46:47.349Z,93.03
2022-11-28T23:49:15.871Z,94.23
2022-11-28T23:51:45.399Z,93.28
2022-11-28T23:54:13.920Z,93.22
2022-11-28T23:56:43.092Z,93.85
2022-11-28T23:59:12.879Z,93.18
